Terminal Aerodrome Forecast
Issued by NWS

Home | Current Version | Previous Version | Text Only | Print | Product List | Glossary Off
Versions: 1 2 3 4 5 6 7 8 9 10 11 12 13 14 15 16 17 18 19 20 21 22 23

000
FTUS41 KCLE 170500
TAFFDY
TAF
KFDY 170524Z 1706/1806 VRB03KT P6SM SKC
      TEMPO 1708/1710 5SM BR
     FM171000 VRB03KT 5SM BR SKC
      TEMPO 1710/1713 2SM BR
     FM171300 27006KT P6SM SKC
     FM180200 26003KT P6SM SKC=

USA.gov is the U.S. government's official web portal to all federal, state and local government web resources and services.